Terminal Aerodrome Forecast
Issued by NWS

Home | Current Version | Previous Version | Graphics & Text | Print | Product List | Glossary On
Versions: 1 2 3 4 5 6 7 8 9 10 11 12 13 14 15
087
FTUS43 KBIS 221120
TAFJMS
TAF
KJMS 221120Z 2212/2312 18010KT P6SM SCT200
     FM221600 21015G23KT P6SM FEW250
     FM221900 21015KT P6SM FEW250
     FM230200 20009KT P6SM FEW050 SCT150=

USA.gov is the U.S. government's official web portal to all federal, state and local government web resources and services.